Time;durP1;ratioP1;P1;durP2;ratioP2;P2;SDS_P1;SDS_P2;PMS_P1;PMS_P2;Temp;Humidity;BMP_temperature;BMP_pressure;BME280_temperature;BME280_humidity;BME280_pressure;Samples;Min_cycle;Max_cycle;Signal;HPM_P1;HPM_P2
2023/01/12 00:02:11;;;;;;;7.93;3.60;;;8.30;99.90;;;;;;4839638;29;20038;-75
2023/01/12 00:04:37;;;;;;;5.05;2.50;;;8.30;99.90;;;;;;4822823;29;20041;-75
2023/01/12 00:07:08;;;;;;;10.80;3.10;;;8.30;99.90;;;;;;4840512;29;20061;-76
2023/01/12 00:09:34;;;;;;;7.82;4.28;;;8.30;99.90;;;;;;4862699;29;20053;-75
2023/01/12 00:12:05;;;;;;;16.58;4.75;;;8.30;99.90;;;;;;4859486;29;20033;-75
2023/01/12 00:14:35;;;;;;;10.07;3.97;;;8.40;99.90;;;;;;4858774;29;20053;-76
2023/01/12 00:17:02;;;;;;;4.75;1.65;;;8.40;99.90;;;;;;4840078;29;20042;-76
2023/01/12 00:19:30;;;;;;;7.60;3.20;;;8.50;99.90;;;;;;4822235;29;20037;-75
2023/01/12 00:24:38;;;;;;;8.88;3.92;;;8.60;99.90;;;;;;4839141;29;20030;-76
2023/01/12 00:27:13;;;;;;;16.17;3.05;;;8.60;99.90;;;;;;4822720;29;20038;-75
2023/01/12 00:29:39;;;;;;;3.10;1.98;;;8.50;99.90;;;;;;4822295;29;20038;-75
2023/01/12 00:32:06;;;;;;;7.90;2.80;;;8.60;99.90;;;;;;4822007;29;20587;-76
2023/01/12 00:34:32;;;;;;;12.23;4.80;;;8.60;99.90;;;;;;4844290;29;20042;-75
2023/01/12 00:37:02;;;;;;;8.68;3.13;;;8.60;99.90;;;;;;4841819;29;20034;-75
2023/01/12 00:39:29;;;;;;;;;;;8.60;99.90;;;;;;4856883;29;20042;-74
2023/01/12 00:47:24;;;;;;;11.05;3.30;;;8.60;99.90;;;;;;4855812;29;20041;-76
2023/01/12 00:49:50;;;;;;;7.18;3.60;;;8.60;99.90;;;;;;4856246;29;20053;-75
2023/01/12 00:52:17;;;;;;;13.10;4.45;;;8.60;99.90;;;;;;4855993;29;20030;-76
2023/01/12 00:54:43;;;;;;;10.90;3.25;;;8.60;99.90;;;;;;4839741;29;20037;-75
2023/01/12 00:57:12;;;;;;;14.88;3.97;;;8.60;99.90;;;;;;4838021;29;20038;-75
2023/01/12 00:59:38;;;;;;;7.22;3.63;;;8.60;99.90;;;;;;4837685;29;20094;-75
2023/01/12 01:02:04;;;;;;;14.50;2.63;;;8.60;99.90;;;;;;4837957;29;20034;-75
2023/01/12 01:04:31;;;;;;;6.22;2.03;;;8.60;99.90;;;;;;4838062;29;20039;-75
2023/01/12 01:06:57;;;;;;;3.88;2.28;;;8.60;99.90;;;;;;4837785;29;20038;-75
2023/01/12 01:09:23;;;;;;;12.57;4.63;;;8.60;99.90;;;;;;4842250;29;20559;-75
2023/01/12 01:11:49;;;;;;;8.02;2.67;;;8.60;99.90;;;;;;4857773;29;20030;-75
2023/01/12 01:14:15;;;;;;;4.25;3.65;;;8.60;99.90;;;;;;4874311;29;20055;-75
2023/01/12 01:16:41;;;;;;;14.60;3.65;;;8.60;99.90;;;;;;4874111;29;20044;-75
2023/01/12 01:19:08;;;;;;;2.50;2.10;;;8.70;99.90;;;;;;4841161;29;20033;-75
2023/01/12 01:21:34;;;;;;;5.88;3.00;;;8.60;99.90;;;;;;4855710;29;20042;-75
2023/01/12 01:24:00;;;;;;;7.55;3.55;;;8.70;99.90;;;;;;4855431;29;20125;-75
2023/01/12 01:26:26;;;;;;;7.30;4.30;;;8.70;99.90;;;;;;4855437;29;20037;-75
2023/01/12 01:28:52;;;;;;;4.50;3.30;;;8.70;99.90;;;;;;4853835;29;20048;-75
2023/01/12 01:31:22;;;;;;;6.40;4.38;;;8.70;99.90;;;;;;4855319;29;20030;-75
2023/01/12 01:33:49;;;;;;;4.72;2.38;;;8.70;99.90;;;;;;4855553;29;20029;-76
2023/01/12 01:36:16;;;;;;;11.05;4.57;;;8.70;99.90;;;;;;4855008;29;20072;-75
2023/01/12 01:38:43;;;;;;;10.77;4.15;;;8.70;99.90;;;;;;4842998;29;20065;-76
2023/01/12 01:41:22;;;;;;;13.75;4.50;;;8.70;99.90;;;;;;4837853;29;20037;-76
2023/01/12 01:43:52;;;;;;;7.53;2.15;;;8.70;99.90;;;;;;4821434;29;20514;-75
2023/01/12 01:46:45;;;;;;;18.25;4.78;;;8.70;99.90;;;;;;4820653;29;20031;-75
2023/01/12 01:49:31;;;;;;;10.05;2.58;;;8.80;99.90;;;;;;4853098;29;20037;-75
2023/01/12 01:52:09;;;;;;;8.80;3.70;;;8.80;99.90;;;;;;4839644;29;20041;-75
2023/01/12 01:54:49;;;;;;;8.15;3.33;;;8.80;99.90;;;;;;4854119;29;20058;-75
2023/01/12 01:57:15;;;;;;;;;;;8.80;99.90;;;;;;4840034;29;20059;-75
2023/01/12 01:59:47;;;;;;;6.32;2.83;;;8.70;99.90;;;;;;4840244;29;19912;-75
2023/01/12 02:02:14;;;;;;;9.63;4.97;;;8.70;99.90;;;;;;4856364;29;20045;-76
2023/01/12 02:04:40;;;;;;;19.17;5.78;;;8.70;99.90;;;;;;4851999;29;20040;-75
2023/01/12 02:07:07;;;;;;;15.05;5.07;;;8.70;99.90;;;;;;4821592;29;20132;-75
2023/01/12 02:09:33;;;;;;;10.88;3.97;;;8.70;99.90;;;;;;4843475;29;20038;-75
2023/01/12 02:18:21;;;;;;;11.45;5.10;;;8.70;99.90;;;;;;4854882;29;20098;-75
2023/01/12 02:21:23;;;;;;;8.77;3.35;;;8.70;99.90;;;;;;4786652;29;20088;-75
2023/01/12 02:23:59;;;;;;;8.57;3.58;;;8.70;99.90;;;;;;4838362;29;20167;-75
2023/01/12 02:26:45;;;;;;;11.70;5.97;;;8.70;99.90;;;;;;4845236;29;20022;-75
2023/01/12 02:29:34;;;;;;;13.07;4.70;;;8.70;99.90;;;;;;4847716;29;20026;-75
2023/01/12 02:32:18;;;;;;;8.20;4.78;;;8.70;99.90;;;;;;4837263;29;20038;-74
2023/01/12 02:35:14;;;;;;;9.73;5.60;;;8.70;99.90;;;;;;4836418;29;20095;-75
2023/01/12 02:37:59;;;;;;;15.80;3.22;;;8.80;99.90;;;;;;4820342;29;20481;-75
2023/01/12 02:41:04;;;;;;;14.63;4.85;;;8.80;99.90;;;;;;4831377;29;20057;-75
2023/01/12 02:43:32;;;;;;;5.07;2.53;;;8.80;99.90;;;;;;4790490;29;20046;-76
2023/01/12 02:46:10;;;;;;;11.48;4.43;;;8.80;99.90;;;;;;4849226;29;20965;-75
2023/01/12 02:48:57;;;;;;;8.77;3.97;;;8.80;99.90;;;;;;4854809;29;20116;-75
2023/01/12 02:51:32;;;;;;;20.65;4.25;;;8.80;99.90;;;;;;4838241;29;20048;-75
2023/01/12 02:54:09;;;;;;;20.42;4.60;;;8.80;99.90;;;;;;4854554;29;20037;-75
2023/01/12 02:56:45;;;;;;;11.52;4.30;;;8.80;99.90;;;;;;4836864;29;20060;-75
2023/01/12 02:59:16;;;;;;;10.45;2.83;;;8.80;99.90;;;;;;4839577;29;20034;-75
2023/01/12 03:01:46;;;;;;;12.52;4.32;;;8.80;99.90;;;;;;4839785;29;20046;-75
2023/01/12 03:04:14;;;;;;;8.65;3.28;;;8.80;99.90;;;;;;4839617;29;20041;-75
2023/01/12 03:06:55;;;;;;;8.77;3.55;;;8.80;99.90;;;;;;4839771;29;20026;-75
2023/01/12 03:09:29;;;;;;;8.10;3.63;;;8.80;99.90;;;;;;4823479;29;20396;-75
2023/01/12 03:12:02;;;;;;;13.80;3.72;;;8.80;99.90;;;;;;4839720;29;20054;-75
2023/01/12 03:14:30;;;;;;;10.15;2.90;;;8.70;99.90;;;;;;4839526;29;20054;-75
2023/01/12 03:16:56;;;;;;;12.07;5.03;;;8.70;99.90;;;;;;4839047;29;20038;-75
2023/01/12 03:19:29;;;;;;;6.88;3.47;;;8.70;99.90;;;;;;4839432;29;20038;-75
2023/01/12 03:22:03;;;;;;;18.20;5.15;;;8.70;99.90;;;;;;4823416;29;20038;-75
2023/01/12 03:24:45;;;;;;;8.15;2.75;;;8.70;99.90;;;;;;4826722;29;20041;-75
2023/01/12 03:27:26;;;;;;;8.88;2.95;;;8.70;99.90;;;;;;4838983;29;20042;-75
2023/01/12 03:30:04;;;;;;;8.30;3.10;;;8.70;99.90;;;;;;4839063;29;20459;-75
2023/01/12 03:32:31;;;;;;;16.75;4.38;;;8.70;99.90;;;;;;4837711;29;20477;-75
2023/01/12 03:34:58;;;;;;;7.75;2.72;;;8.70;99.90;;;;;;4842304;29;20493;-75
2023/01/12 03:37:32;;;;;;;6.28;2.65;;;8.70;99.90;;;;;;4839314;29;20038;-75
2023/01/12 03:40:01;;;;;;;9.68;3.17;;;8.70;99.90;;;;;;4833174;29;20059;-76
2023/01/12 03:42:50;;;;;;;7.63;4.63;;;8.70;99.90;;;;;;4857844;29;20030;-75
2023/01/12 03:45:38;;;;;;;15.95;3.58;;;8.70;99.90;;;;;;4841055;29;20030;-75
2023/01/12 03:48:17;;;;;;;14.13;3.50;;;8.60;99.90;;;;;;4857813;29;20038;-75
2023/01/12 03:51:04;;;;;;;5.23;2.77;;;8.60;99.90;;;;;;4841870;29;20050;-75
2023/01/12 03:53:31;;;;;;;8.73;2.25;;;8.60;99.90;;;;;;4839691;29;20435;-75
2023/01/12 03:56:01;;;;;;;9.48;3.78;;;8.60;99.90;;;;;;4839963;29;20034;-75
2023/01/12 03:58:28;;;;;;;17.77;4.13;;;8.60;99.90;;;;;;4839452;29;20054;-73
2023/01/12 04:00:54;;;;;;;11.48;3.42;;;8.60;99.90;;;;;;4856814;29;20058;-75
2023/01/12 04:03:20;;;;;;;5.85;3.17;;;8.60;99.90;;;;;;4826387;29;20066;-76
2023/01/12 04:05:46;;;;;;;9.57;3.30;;;8.60;99.90;;;;;;4826114;29;20034;-75
2023/01/12 04:08:14;;;;;;;5.63;2.75;;;8.60;99.90;;;;;;4841279;29;20045;-75
2023/01/12 04:10:40;;;;;;;6.32;2.88;;;8.60;99.90;;;;;;4863629;29;20037;-75
2023/01/12 04:13:05;;;;;;;8.82;3.45;;;8.60;99.90;;;;;;4876183;29;20030;-76
2023/01/12 04:15:36;;;;;;;7.15;2.67;;;8.60;99.90;;;;;;4876065;29;20480;-75
2023/01/12 04:18:03;;;;;;;12.43;3.22;;;8.60;99.90;;;;;;4876466;29;20456;-76
2023/01/12 04:20:29;;;;;;;6.95;3.20;;;8.60;99.90;;;;;;4849444;29;20034;-75
2023/01/12 04:22:55;;;;;;;7.85;4.35;;;8.60;99.90;;;;;;4839835;29;20057;-76
2023/01/12 04:25:21;;;;;;;10.18;2.88;;;8.60;99.90;;;;;;4839226;29;20075;-75
2023/01/12 04:27:50;;;;;;;5.85;2.63;;;8.60;99.90;;;;;;4838683;29;20022;-76
2023/01/12 04:30:21;;;;;;;7.18;3.40;;;8.60;99.90;;;;;;4838775;29;20046;-75
2023/01/12 04:32:47;;;;;;;12.75;3.53;;;8.60;99.90;;;;;;4838912;29;20030;-76
2023/01/12 04:35:15;;;;;;;10.18;3.85;;;8.50;99.90;;;;;;4838739;29;20065;-75
2023/01/12 04:37:41;;;;;;;6.80;1.95;;;8.60;99.90;;;;;;4838501;29;20035;-75
2023/01/12 04:40:10;;;;;;;11.88;3.15;;;8.50;99.90;;;;;;4848843;29;20098;-75
2023/01/12 04:45:39;;;;;;;13.65;3.95;;;8.60;99.90;;;;;;4806331;29;20472;-75
2023/01/12 04:48:07;;;;;;;;;;;8.60;99.90;;;;;;4857674;29;20111;-75
2023/01/12 04:50:33;;;;;;;8.18;3.10;;;8.60;99.90;;;;;;4856343;29;19959;-75
2023/01/12 04:53:01;;;;;;;9.23;3.00;;;8.60;99.90;;;;;;4857473;29;20030;-76
2023/01/12 04:55:28;;;;;;;12.35;3.50;;;8.60;99.90;;;;;;4857571;29;20030;-75
2023/01/12 04:57:55;;;;;;;16.80;3.10;;;8.60;99.90;;;;;;4841212;29;20094;-75
2023/01/12 05:00:21;;;;;;;5.45;2.80;;;8.50;99.90;;;;;;4845441;29;20117;-75
2023/01/12 05:02:47;;;;;;;5.97;2.38;;;8.50;99.90;;;;;;4838454;29;20045;-75
2023/01/12 05:05:13;;;;;;;7.20;3.70;;;8.50;99.90;;;;;;4838154;29;20053;-75
2023/01/12 05:10:21;;;;;;;8.18;3.92;;;8.50;99.90;;;;;;4821679;29;20087;-75
2023/01/12 05:10:28;;;;;;;8.30;3.90;;;8.50;99.90;;;;;;4846112;29;20037;-75
2023/01/12 05:12:55;;;;;;;12.30;4.95;;;8.50;99.90;;;;;;4875364;29;20065;-75
2023/01/12 05:15:21;;;;;;;7.72;3.22;;;8.60;99.90;;;;;;4859265;29;20033;-75
2023/01/12 05:17:47;;;;;;;4.55;2.47;;;8.60;99.90;;;;;;4822117;29;20030;-75
2023/01/12 05:20:13;;;;;;;13.15;4.80;;;8.60;99.90;;;;;;4821856;29;20070;-75
2023/01/12 05:22:39;;;;;;;4.75;2.50;;;8.60;99.90;;;;;;4822258;29;20030;-76
2023/01/12 05:25:05;;;;;;;7.05;4.28;;;8.60;99.90;;;;;;4838810;29;20038;-76
2023/01/12 05:27:31;;;;;;;6.10;2.88;;;8.60;99.90;;;;;;4839160;29;20034;-75
2023/01/12 05:29:58;;;;;;;13.90;3.28;;;8.60;99.90;;;;;;4856577;29;20069;-75
2023/01/12 05:32:25;;;;;;;2.40;2.20;;;8.60;99.90;;;;;;4857430;29;20050;-75
2023/01/12 05:34:50;;;;;;;7.15;3.10;;;8.60;99.90;;;;;;4857068;29;20105;-76
2023/01/12 05:37:16;;;;;;;6.75;3.50;;;8.60;99.90;;;;;;4857815;29;20037;-75
2023/01/12 05:39:42;;;;;;;6.88;3.13;;;8.60;99.90;;;;;;4844461;29;20489;-75
2023/01/12 05:44:52;;;;;;;12.02;5.03;;;8.60;99.90;;;;;;4839137;29;20105;-76
2023/01/12 05:47:18;;;;;;;7.82;2.35;;;8.60;99.90;;;;;;4847762;29;20059;-75
2023/01/12 05:49:44;;;;;;;6.15;4.45;;;8.60;99.90;;;;;;4857422;29;20094;-75
2023/01/12 05:52:10;;;;;;;10.77;4.53;;;8.60;99.90;;;;;;4857759;29;20030;-75
2023/01/12 05:54:36;;;;;;;11.73;3.17;;;8.50;99.90;;;;;;4841040;29;20067;-75
2023/01/12 05:57:02;;;;;;;8.32;2.83;;;8.60;99.90;;;;;;4857154;29;20034;-77
2023/01/12 05:59:28;;;;;;;6.95;2.38;;;8.60;99.90;;;;;;4857249;29;20046;-77
2023/01/12 06:01:54;;;;;;;9.52;3.35;;;8.60;99.90;;;;;;4857367;29;20053;-76
2023/01/12 06:04:20;;;;;;;4.40;2.92;;;8.60;99.90;;;;;;4841097;29;20042;-77
2023/01/12 06:06:47;;;;;;;3.28;2.42;;;8.60;99.90;;;;;;4850827;29;20023;-77
2023/01/12 06:09:13;;;;;;;9.38;2.25;;;8.70;99.90;;;;;;4838559;29;20047;-76
2023/01/12 06:14:23;;;;;;;18.50;5.13;;;8.70;99.90;;;;;;4876255;29;20057;-76
2023/01/12 06:16:49;;;;;;;10.07;2.30;;;8.70;99.90;;;;;;4846942;29;20094;-76
2023/01/12 06:19:15;;;;;;;4.45;1.88;;;8.70;99.90;;;;;;4839223;29;20034;-75
2023/01/12 06:21:40;;;;;;;26.33;5.32;;;8.70;99.90;;;;;;4840175;29;20069;-75
2023/01/12 06:24:07;;;;;;;10.82;3.75;;;8.80;99.90;;;;;;4839892;29;20067;-75
2023/01/12 06:26:33;;;;;;;5.95;3.00;;;8.80;99.90;;;;;;4828298;29;20052;-76
2023/01/12 06:29:00;;;;;;;5.47;2.47;;;8.80;99.90;;;;;;4859005;29;20034;-76
2023/01/12 06:31:25;;;;;;;10.23;3.35;;;8.70;99.90;;;;;;4859006;29;20030;-76
2023/01/12 06:33:51;;;;;;;13.52;2.30;;;8.80;99.90;;;;;;4851952;29;20056;-74
2023/01/12 06:36:17;;;;;;;6.28;1.98;;;8.80;99.90;;;;;;4841305;29;20062;-75
2023/01/12 06:38:43;;;;;;;12.90;3.10;;;8.80;99.90;;;;;;4842106;29;20532;-75
2023/01/12 06:43:57;;;;;;;12.65;3.55;;;8.90;99.90;;;;;;4862913;29;20034;-76
2023/01/12 06:46:24;;;;;;;4.00;2.40;;;8.90;99.90;;;;;;4835046;29;20094;-76
2023/01/12 06:48:49;;;;;;;10.38;3.83;;;8.90;99.90;;;;;;4859230;29;20030;-75
2023/01/12 06:51:15;;;;;;;9.55;2.90;;;8.90;99.90;;;;;;4826047;29;20105;-75
2023/01/12 06:53:41;;;;;;;6.25;3.22;;;8.90;99.90;;;;;;4840810;29;20029;-75
2023/01/12 06:56:07;;;;;;;22.70;2.42;;;8.90;99.90;;;;;;4856676;29;20022;-75
2023/01/12 06:58:33;;;;;;;2.17;1.42;;;8.90;99.90;;;;;;4829369;29;20062;-77
2023/01/12 07:01:03;;;;;;;3.88;2.67;;;8.90;99.90;;;;;;4815604;29;20495;-77
2023/01/12 07:03:29;;;;;;;7.32;2.72;;;8.90;99.90;;;;;;4842596;29;20037;-78
2023/01/12 07:05:59;;;;;;;5.75;1.58;;;8.90;99.90;;;;;;4828857;29;20030;-77
2023/01/12 07:08:25;;;;;;;3.65;1.60;;;8.90;99.90;;;;;;4861326;29;20045;-76
2023/01/12 07:10:51;;;;;;;8.48;1.42;;;9.00;99.90;;;;;;4842944;29;20018;-77
2023/01/12 07:13:17;;;;;;;2.92;1.30;;;9.00;99.90;;;;;;4844091;29;20038;-77
2023/01/12 07:15:43;;;;;;;2.40;2.08;;;9.00;99.90;;;;;;4832954;29;20059;-77
2023/01/12 07:18:09;;;;;;;10.23;2.22;;;9.00;99.90;;;;;;4844343;29;20085;-77
2023/01/12 07:20:35;;;;;;;3.42;2.13;;;9.00;99.90;;;;;;4831891;29;20158;-77
2023/01/12 07:23:01;;;;;;;12.20;3.92;;;9.00;99.90;;;;;;4828989;29;20106;-77
2023/01/12 07:25:27;;;;;;;5.03;1.10;;;9.10;99.90;;;;;;4845151;29;20041;-77
2023/01/12 07:27:55;;;;;;;2.45;1.05;;;9.00;99.90;;;;;;4816126;29;20044;-77
2023/01/12 07:30:22;;;;;;;5.93;0.88;;;9.10;99.90;;;;;;4827385;29;20098;-77
2023/01/12 07:32:48;;;;;;;1.60;0.82;;;9.10;99.90;;;;;;4860474;29;20026;-77
2023/01/12 07:35:16;;;;;;;9.55;2.67;;;9.10;99.90;;;;;;4836381;29;20042;-77
2023/01/12 07:37:54;;;;;;;5.82;2.47;;;9.10;99.90;;;;;;4846548;29;20031;-78
2023/01/12 07:40:20;;;;;;;9.27;2.55;;;9.10;99.90;;;;;;4846307;29;20034;-77
2023/01/12 07:42:46;;;;;;;8.02;2.92;;;9.10;99.90;;;;;;4848599;29;20089;-77
2023/01/12 07:45:12;;;;;;;6.38;2.70;;;9.10;99.90;;;;;;4847985;29;20054;-78
2023/01/12 07:47:38;;;;;;;4.03;1.50;;;9.10;99.90;;;;;;4846329;29;20034;-77
2023/01/12 07:50:04;;;;;;;5.05;2.25;;;9.10;99.90;;;;;;4848538;29;20030;-78
2023/01/12 07:52:30;;;;;;;6.13;3.80;;;9.20;99.90;;;;;;4848106;29;20023;-78
2023/01/12 07:54:56;;;;;;;4.05;3.08;;;9.20;99.90;;;;;;4845923;29;20026;-77
2023/01/12 07:57:22;;;;;;;7.63;3.05;;;9.20;99.90;;;;;;4843265;29;20113;-78
2023/01/12 07:59:48;;;;;;;8.90;5.55;;;9.20;99.90;;;;;;4843609;29;20500;-78
2023/01/12 08:02:18;;;;;;;8.38;5.30;;;9.20;99.90;;;;;;4835804;29;20037;-78
2023/01/12 08:04:44;;;;;;;10.75;4.88;;;9.30;99.90;;;;;;4855245;29;20163;-78
2023/01/12 08:07:10;;;;;;;7.35;5.38;;;9.20;99.90;;;;;;4858191;29;20022;-77
2023/01/12 08:09:36;;;;;;;11.63;3.53;;;9.30;99.90;;;;;;4839986;29;20033;-77
2023/01/12 08:12:02;;;;;;;6.78;4.13;;;9.30;99.90;;;;;;4840259;29;20045;-77
2023/01/12 08:14:32;;;;;;;13.07;4.45;;;9.30;99.90;;;;;;4825194;29;20058;-77
2023/01/12 08:17:01;;;;;;;5.43;3.60;;;9.30;99.90;;;;;;4856747;29;20026;-78
2023/01/12 08:19:36;;;;;;;10.73;4.50;;;9.40;99.90;;;;;;4856809;29;20070;-78
2023/01/12 08:22:06;;;;;;;4.18;2.05;;;9.30;99.90;;;;;;4843598;29;20030;-77
2023/01/12 08:24:40;;;;;;;3.75;3.22;;;9.40;99.90;;;;;;4857040;29;20041;-78
2023/01/12 08:27:10;;;;;;;9.13;4.45;;;9.40;99.90;;;;;;4825482;29;20102;-78
2023/01/12 08:29:43;;;;;;;3.33;2.85;;;9.40;99.90;;;;;;4852891;29;20022;-77
2023/01/12 08:32:11;;;;;;;4.10;2.22;;;9.40;99.90;;;;;;4839391;29;20073;-77
2023/01/12 08:34:40;;;;;;;3.65;3.20;;;9.50;99.90;;;;;;4855223;29;20054;-77
2023/01/12 08:37:08;;;;;;;1.48;1.42;;;9.50;99.90;;;;;;4855985;29;20041;-76
2023/01/12 08:39:35;;;;;;;3.92;2.20;;;9.50;99.90;;;;;;4837904;29;20034;-77
2023/01/12 08:42:01;;;;;;;2.40;1.92;;;9.50;99.90;;;;;;4856130;29;20472;-77
2023/01/12 08:44:33;;;;;;;2.97;1.55;;;9.50;99.90;;;;;;4839612;29;20050;-77
2023/01/12 08:46:58;;;;;;;2.20;1.33;;;9.50;99.90;;;;;;4843808;29;20043;-77
2023/01/12 08:49:27;;;;;;;2.08;1.85;;;9.50;99.90;;;;;;4855286;29;20030;-77
2023/01/12 08:51:53;;;;;;;4.00;1.33;;;9.60;99.90;;;;;;4839630;29;20090;-77
2023/01/12 08:54:20;;;;;;;2.60;1.83;;;9.60;99.90;;;;;;4839370;29;20040;-77
2023/01/12 08:56:46;;;;;;;5.88;1.20;;;9.60;99.90;;;;;;4855540;29;20453;-78
2023/01/12 08:59:12;;;;;;;9.82;2.47;;;9.60;99.90;;;;;;4853445;29;20019;-77
2023/01/12 09:01:38;;;;;;;3.05;1.33;;;9.60;99.90;;;;;;4837353;29;20051;-77
2023/01/12 09:04:04;;;;;;;4.60;2.47;;;9.60;99.90;;;;;;4842530;29;20114;-77
2023/01/12 09:06:51;;;;;;;0.95;0.88;;;9.60;99.90;;;;;;4837360;29;20054;-76
2023/01/12 09:09:18;;;;;;;2.50;1.45;;;9.60;99.90;;;;;;4837415;29;20046;-77
2023/01/12 09:11:45;;;;;;;6.13;2.20;;;;;;;;;;4837274;29;20112;-77
2023/01/12 09:14:12;;;;;;;5.97;3.92;;;9.70;99.90;;;;;;4820919;29;20098;-77
2023/01/12 09:16:39;;;;;;;3.03;1.95;;;9.70;99.90;;;;;;4837499;29;20039;-77
2023/01/12 09:19:05;;;;;;;3.67;2.05;;;9.70;99.90;;;;;;4821896;29;20054;-78
2023/01/12 09:21:32;;;;;;;3.67;1.48;;;9.70;99.90;;;;;;4830223;29;20030;-77
2023/01/12 09:23:58;;;;;;;4.85;1.42;;;9.70;99.90;;;;;;4837174;29;20047;-77
2023/01/12 09:26:30;;;;;;;2.10;1.27;;;9.70;99.90;;;;;;4852726;29;20034;-76
2023/01/12 09:29:03;;;;;;;3.10;1.38;;;9.80;99.90;;;;;;4844322;29;20045;-76
2023/01/12 09:31:30;;;;;;;3.80;1.73;;;9.80;99.90;;;;;;4837090;29;20049;-77
2023/01/12 09:33:56;;;;;;;2.85;1.33;;;9.80;99.90;;;;;;4826872;29;20024;-77
2023/01/12 09:36:25;;;;;;;3.42;1.25;;;9.80;99.90;;;;;;4823122;29;20125;-77
2023/01/12 09:38:51;;;;;;;2.15;0.82;;;9.80;99.90;;;;;;4839135;29;20035;-77
2023/01/12 09:47:02;;;;;;;2.67;1.52;;;9.80;99.90;;;;;;4840173;29;20451;-77
2023/01/12 09:49:33;;;;;;;2.65;0.98;;;9.80;99.90;;;;;;4836884;29;20033;-77
2023/01/12 09:52:17;;;;;;;5.45;1.65;;;9.90;99.90;;;;;;4822506;29;20041;-77
2023/01/12 09:54:48;;;;;;;3.05;1.23;;;9.90;99.90;;;;;;4851490;29;20041;-77
2023/01/12 09:58:00;;;;;;;2.75;1.17;;;9.90;99.90;;;;;;4854518;29;20396;-77
2023/01/12 10:00:27;;;;;;;2.08;1.10;;;10.00;99.90;;;;;;4837178;29;20034;-77
2023/01/12 10:03:04;;;;;;;1.80;0.63;;;10.00;99.90;;;;;;4841290;29;20087;-77
2023/01/12 10:05:47;;;;;;;1.35;1.25;;;10.00;99.90;;;;;;4819847;29;20042;-76
2023/01/12 10:08:38;;;;;;;1.90;1.00;;;10.10;99.90;;;;;;4842664;29;20049;-77
2023/01/12 10:11:12;;;;;;;1.70;0.95;;;10.10;99.90;;;;;;4834219;29;20458;-77
2023/01/12 10:13:49;;;;;;;3.20;0.70;;;10.20;99.90;;;;;;4840220;29;20110;-77
2023/01/12 10:16:24;;;;;;;2.08;1.40;;;10.20;99.90;;;;;;4823925;29;20031;-77
2023/01/12 10:18:55;;;;;;;3.50;0.77;;;10.20;99.90;;;;;;4839889;29;20031;-77
2023/01/12 10:21:22;;;;;;;3.28;1.45;;;10.20;99.90;;;;;;4845683;29;20094;-77
2023/01/12 10:23:52;;;;;;;1.83;0.93;;;10.20;99.90;;;;;;4853314;29;20120;-77
2023/01/12 10:26:23;;;;;;;2.40;2.00;;;10.20;99.90;;;;;;4858429;29;20034;-76
2023/01/12 10:28:52;;;;;;;1.65;1.13;;;10.20;99.90;;;;;;4858166;29;20046;-77
2023/01/12 10:31:21;;;;;;;2.38;2.17;;;10.20;99.90;;;;;;4855235;29;20030;-77
2023/01/12 10:34:06;;;;;;;2.25;1.15;;;10.20;99.90;;;;;;4841771;29;20038;-77
2023/01/12 10:36:42;;;;;;;1.98;0.82;;;10.20;99.90;;;;;;4826370;29;20042;-77
2023/01/12 10:39:29;;;;;;;4.60;1.33;;;10.20;99.90;;;;;;4846491;29;20042;-77
2023/01/12 10:43:17;;;;;;;3.10;1.00;;;10.20;99.90;;;;;;4841355;29;20038;-77
2023/01/12 10:45:19;;;;;;;11.27;7.68;;;10.20;99.90;;;;;;4840417;29;20053;-77
2023/01/12 10:47:46;;;;;;;10.80;6.40;;;10.20;99.90;;;;;;4839472;29;20034;-77
2023/01/12 10:50:21;;;;;;;19.48;13.27;;;10.30;99.90;;;;;;4839895;29;20038;-78
2023/01/12 10:52:52;;;;;;;11.40;5.18;;;10.30;99.90;;;;;;4838295;29;20030;-77
2023/01/12 10:55:23;;;;;;;10.60;5.35;;;10.30;99.90;;;;;;4823614;29;20058;-77
2023/01/12 10:57:50;;;;;;;8.38;2.83;;;10.30;99.90;;;;;;4844526;29;20033;-77
2023/01/12 11:00:27;;;;;;;8.43;2.47;;;10.30;99.90;;;;;;4845287;29;20480;-77
2023/01/12 11:02:53;;;;;;;2.72;2.50;;;10.30;99.90;;;;;;4821902;29;20038;-77
2023/01/12 11:05:37;;;;;;;4.78;1.80;;;10.30;99.90;;;;;;4834456;29;20034;-77
2023/01/12 11:08:26;;;;;;;4.75;2.85;;;10.30;99.90;;;;;;4847789;29;20064;-76
2023/01/12 11:10:52;;;;;;;3.58;1.73;;;10.30;99.90;;;;;;4830587;29;20117;-77
2023/01/12 11:13:35;;;;;;;5.22;3.40;;;10.30;99.90;;;;;;4839622;29;20050;-77
2023/01/12 11:16:18;;;;;;;3.83;2.58;;;10.30;99.90;;;;;;4865104;29;20026;-76
2023/01/12 11:18:57;;;;;;;2.30;1.60;;;10.30;99.90;;;;;;4855697;29;20041;-77
2023/01/12 11:21:28;;;;;;;2.53;1.63;;;10.30;99.90;;;;;;4857387;29;20572;-77
2023/01/12 11:24:22;;;;;;;2.65;2.45;;;10.30;99.90;;;;;;4841388;29;20429;-77
2023/01/12 11:27:14;;;;;;;2.63;2.38;;;10.30;99.90;;;;;;4822366;29;20053;-77
2023/01/12 11:30:02;;;;;;;23.77;14.13;;;10.30;99.90;;;;;;4835699;29;20103;-76
2023/01/12 11:32:38;;;;;;;3.95;2.90;;;10.30;99.90;;;;;;4842049;29;20041;-76
2023/01/12 11:35:28;;;;;;;2.05;0.75;;;10.30;99.90;;;;;;4827092;29;20075;-76
2023/01/12 11:37:59;;;;;;;2.80;1.70;;;10.30;99.90;;;;;;4830518;29;20026;-76
2023/01/12 11:40:33;;;;;;;2.05;0.93;;;10.30;99.90;;;;;;4824885;29;20044;-76
2023/01/12 11:46:25;;;;;;;2.53;1.77;;;10.30;99.90;;;;;;4824179;29;20079;-76
2023/01/12 11:49:10;;;;;;;1.10;0.70;;;10.30;99.90;;;;;;4803277;29;20041;-76
2023/01/12 11:51:36;;;;;;;6.78;0.93;;;10.30;99.90;;;;;;4839281;29;20030;-76
2023/01/12 11:54:05;;;;;;;2.92;0.73;;;10.30;99.90;;;;;;4817599;29;20031;-76
2023/01/12 11:56:55;;;;;;;0.75;0.52;;;10.30;99.90;;;;;;4823457;29;20034;-76
2023/01/12 11:59:59;;;;;;;4.13;1.20;;;10.30;99.90;;;;;;4837727;29;20053;-76
2023/01/12 12:02:44;;;;;;;0.47;0.47;;;10.30;99.90;;;;;;4828757;29;20042;-78
2023/01/12 12:05:22;;;;;;;0.95;0.93;;;10.20;99.90;;;;;;4843928;29;20503;-77
2023/01/12 12:08:06;;;;;;;1.52;1.35;;;10.30;99.90;;;;;;4839072;29;20049;-75
2023/01/12 12:11:03;;;;;;;5.20;1.00;;;10.30;99.90;;;;;;4849567;29;20102;-77
2023/01/12 12:13:44;;;;;;;1.30;0.50;;;10.30;99.90;;;;;;4853517;29;20034;-77
2023/01/12 12:16:31;;;;;;;5.10;1.48;;;10.30;99.90;;;;;;4855693;29;20022;-77
2023/01/12 12:19:12;;;;;;;0.70;0.70;;;10.30;99.90;;;;;;4834474;29;20035;-78
2023/01/12 12:22:09;;;;;;;0.60;0.60;;;10.30;99.90;;;;;;4821785;29;20049;-77
2023/01/12 12:24:41;;;;;;;0.50;0.50;;;10.30;99.90;;;;;;4829642;29;20038;-75
2023/01/12 12:27:40;;;;;;;0.50;0.50;;;10.30;99.90;;;;;;4855805;29;20399;-74
2023/01/12 12:30:15;;;;;;;0.80;0.65;;;10.30;99.90;;;;;;4820832;29;20039;-76
2023/01/12 12:33:06;;;;;;;0.63;0.55;;;10.30;99.90;;;;;;4853552;29;20026;-75
2023/01/12 12:35:51;;;;;;;0.80;0.80;;;10.30;99.90;;;;;;4840896;29;20041;-74
2023/01/12 12:38:36;;;;;;;5.07;2.60;;;10.30;99.90;;;;;;4828703;29;20061;-75
2023/01/12 12:47:31;;;;;;;6.15;4.28;;;10.40;99.90;;;;;;4830983;29;20109;-76
2023/01/12 12:49:59;;;;;;;4.10;2.85;;;10.40;99.90;;;;;;4837444;29;20589;-75
2023/01/12 12:52:30;;;;;;;1.17;0.88;;;10.40;99.90;;;;;;4855281;29;20018;-76
2023/01/12 12:54:58;;;;;;;2.65;0.68;;;10.40;99.90;;;;;;4863479;29;20033;-76
2023/01/12 12:57:24;;;;;;;0.80;0.80;;;10.40;99.90;;;;;;4859878;29;20030;-76
2023/01/12 12:59:55;;;;;;;2.10;1.15;;;10.40;99.90;;;;;;4835204;29;20522;-76
2023/01/12 13:02:37;;;;;;;2.90;1.25;;;10.40;99.90;;;;;;4848995;29;20034;-76
2023/01/12 13:05:07;;;;;;;0.88;0.88;;;10.40;99.90;;;;;;4855080;29;20038;-76
2023/01/12 13:07:41;;;;;;;1.25;1.15;;;10.40;99.90;;;;;;4825504;29;20031;-75
2023/01/12 13:10:27;;;;;;;1.90;1.45;;;10.40;99.90;;;;;;4853631;29;20032;-75
2023/01/12 13:13:03;;;;;;;5.28;2.90;;;10.40;99.90;;;;;;4851410;29;20033;-76
2023/01/12 13:15:35;;;;;;;3.25;2.20;;;10.50;99.90;;;;;;4854827;29;20030;-75
2023/01/12 13:18:02;;;;;;;4.30;2.30;;;10.50;99.90;;;;;;4855155;29;20030;-76
2023/01/12 13:20:46;;;;;;;4.90;1.95;;;10.50;99.90;;;;;;4854637;29;20030;-76
2023/01/12 13:23:40;;;;;;;1.38;1.27;;;10.50;99.90;;;;;;4847091;29;20040;-77
2023/01/12 13:26:24;;;;;;;2.72;1.40;;;10.50;99.90;;;;;;4823561;29;20109;-78
2023/01/12 13:29:21;;;;;;;3.95;2.58;;;10.50;99.90;;;;;;4811935;29;20038;-78
2023/01/12 13:31:51;;;;;;;2.55;1.25;;;10.50;99.90;;;;;;4848555;29;20040;-75
2023/01/12 13:34:35;;;;;;;2.15;1.90;;;10.50;99.90;;;;;;4838443;29;20114;-78
2023/01/12 13:37:30;;;;;;;1.83;1.05;;;10.50;99.90;;;;;;4834951;29;20079;-75
2023/01/12 13:40:18;;;;;;;5.10;4.72;;;10.50;99.90;;;;;;4852948;29;20067;-77
2023/01/12 13:45:31;;;;;;;0.60;0.60;;;10.50;99.90;;;;;;4852332;29;20117;-75
2023/01/12 13:47:57;;;;;;;2.28;1.48;;;10.50;99.90;;;;;;4838183;29;20059;-77
2023/01/12 13:50:26;;;;;;;1.02;1.02;;;10.50;99.90;;;;;;4852518;29;20042;-77
2023/01/12 13:52:57;;;;;;;9.02;1.67;;;10.50;99.90;;;;;;4834366;29;20034;-75
2023/01/12 13:55:26;;;;;;;1.58;1.48;;;10.50;99.90;;;;;;4825022;29;20042;-77
2023/01/12 13:58:01;;;;;;;3.80;1.65;;;10.50;99.90;;;;;;4829723;29;20030;-75
2023/01/12 14:00:31;;;;;;;3.40;1.23;;;10.50;99.90;;;;;;4852800;29;20026;-78
2023/01/12 14:02:58;;;;;;;2.17;1.90;;;10.50;99.90;;;;;;4836982;29;20036;-77